Time;durP1;ratioP1;P1;durP2;ratioP2;P2;SDS_P1;SDS_P2;PMS_P1;PMS_P2;Temp;Humidity;BMP_temperature;BMP_pressure;BME280_temperature;BME280_humidity;BME280_pressure;Samples;Min_cycle;Max_cycle;Signal;HPM_P1;HPM_P2
2022/09/14 00:00:42;;;;;;;;;;;15.70;99.90;;;;;;5052975;28;19917;-80
2022/09/14 00:03:07;;;;;;;;;;;15.60;99.90;;;;;;5053163;28;20145;-80
2022/09/14 00:05:34;;;;;;;;;;;15.70;99.90;;;;;;5051649;28;19928;-80
2022/09/14 00:07:59;;;;;;;;;;;15.70;99.90;;;;;;5052560;28;19924;-80
2022/09/14 00:10:25;;;;;;;;;;;15.70;99.90;;;;;;5052509;28;19913;-80
2022/09/14 00:12:51;;;;;;;;;;;15.70;99.90;;;;;;5052955;28;19939;-80
2022/09/14 00:15:16;;;;;;;;;;;15.70;99.90;;;;;;5050032;28;19928;-79
2022/09/14 00:17:42;;;;;;;;;;;15.70;99.90;;;;;;5050182;28;19919;-79
2022/09/14 00:20:08;;;;;;;;;;;15.70;99.90;;;;;;5031855;28;19923;-79
2022/09/14 00:22:33;;;;;;;;;;;15.70;99.90;;;;;;5048422;28;19921;-79
2022/09/14 00:24:59;;;;;;;;;;;15.60;99.90;;;;;;5049567;28;20023;-79
2022/09/14 00:27:25;;;;;;;;;;;15.60;99.90;;;;;;5048273;28;19917;-79
2022/09/14 00:29:50;;;;;;;;;;;15.70;99.90;;;;;;5048035;28;19932;-79
2022/09/14 00:32:16;;;;;;;;;;;15.60;99.90;;;;;;5048158;28;19951;-79
2022/09/14 00:34:41;;;;;;;;;;;15.60;99.90;;;;;;5031162;28;20340;-79
2022/09/14 00:37:07;;;;;;;;;;;15.60;99.90;;;;;;5049078;28;19924;-79
2022/09/14 00:39:32;;;;;;;;;;;15.60;99.90;;;;;;5031355;28;19921;-80
2022/09/14 00:41:58;;;;;;;;;;;15.60;99.90;;;;;;5047800;28;19938;-79
2022/09/14 00:44:27;;;;;;;;;;;15.60;99.90;;;;;;5040502;28;19917;-79
2022/09/14 00:46:58;;;;;;;;;;;15.60;99.90;;;;;;5059157;28;19917;-79
2022/09/14 00:49:23;;;;;;;;;;;15.60;99.90;;;;;;5048032;28;20078;-79
2022/09/14 00:51:55;;;;;;;;;;;15.60;99.90;;;;;;5047680;28;20097;-79
2022/09/14 00:54:21;;;;;;;;;;;15.60;99.90;;;;;;5048894;28;20007;-79
2022/09/14 00:56:47;;;;;;;;;;;15.60;99.90;;;;;;5049116;28;19952;-79
2022/09/14 00:59:15;;;;;;;;;;;15.70;99.90;;;;;;5051676;28;20450;-79
2022/09/14 01:01:41;;;;;;;;;;;15.70;99.90;;;;;;5048849;28;20389;-79
2022/09/14 01:04:07;;;;;;;;;;;15.60;99.90;;;;;;5029891;28;19924;-79
2022/09/14 01:06:40;;;;;;;;;;;15.60;99.90;;;;;;5047218;28;20446;-79
2022/09/14 01:09:15;;;;;;;;;;;15.60;99.90;;;;;;5048369;28;19921;-80
2022/09/14 01:12:07;;;;;;;;;;;15.70;99.90;;;;;;5053466;28;19912;-80
2022/09/14 01:14:43;;;;;;;;;;;15.60;99.90;;;;;;5053989;28;20054;-79
2022/09/14 01:17:16;;;;;;;;;;;15.60;99.90;;;;;;5052711;28;19920;-79
2022/09/14 01:19:47;;;;;;;;;;;15.60;99.90;;;;;;5053867;28;20007;-79
2022/09/14 01:22:17;;;;;;;;;;;15.60;99.90;;;;;;5054674;28;20447;-79
2022/09/14 01:24:43;;;;;;;;;;;15.60;99.90;;;;;;5053443;28;19913;-79
2022/09/14 01:27:11;;;;;;;;;;;15.60;99.90;;;;;;5045084;28;19957;-79
2022/09/14 01:30:03;;;;;;;;;;;15.60;99.90;;;;;;5036531;28;20366;-79
2022/09/14 01:32:31;;;;;;;;;;;15.60;99.90;;;;;;5057414;28;19912;-79
2022/09/14 01:35:04;;;;;;;;;;;15.60;99.90;;;;;;5054616;28;19913;-78
2022/09/14 01:37:35;;;;;;;;;;;15.60;99.90;;;;;;5054623;28;19913;-79
2022/09/14 01:40:08;;;;;;;;;;;15.60;99.90;;;;;;5052721;28;19986;-80
2022/09/14 01:42:34;;;;;;;;;;;15.60;99.90;;;;;;5054168;28;20444;-80
2022/09/14 01:45:01;;;;;;;;;;;15.70;99.90;;;;;;5054448;28;19913;-79
2022/09/14 01:47:27;;;;;;;;;;;15.70;99.90;;;;;;5052938;28;19913;-80
2022/09/14 01:49:56;;;;;;;;;;;15.70;99.90;;;;;;5034260;28;20597;-80
2022/09/14 01:52:29;;;;;;;;;;;15.70;99.90;;;;;;5052525;28;19940;-80
2022/09/14 01:55:00;;;;;;;;;;;15.70;99.90;;;;;;5053924;28;19955;-80
2022/09/14 01:57:33;;;;;;;;;;;15.70;99.90;;;;;;5053494;28;19917;-79
2022/09/14 02:00:01;;;;;;;;;;;15.70;99.90;;;;;;5054016;28;19960;-80
2022/09/14 02:02:38;;;;;;;;;;;15.60;99.90;;;;;;5053818;28;19962;-80
2022/09/14 02:05:13;;;;;;;;;;;15.70;99.90;;;;;;5035892;28;20431;-80
2022/09/14 02:07:39;;;;;;;;;;;15.60;99.90;;;;;;5032861;28;20020;-80
2022/09/14 02:10:07;;;;;;;;;;;15.60;99.90;;;;;;5041501;28;19960;-80
2022/09/14 02:12:33;;;;;;;;;;;15.60;99.90;;;;;;5052233;28;19948;-80
2022/09/14 02:14:59;;;;;;;;;;;15.60;99.90;;;;;;5045695;28;19968;-80
2022/09/14 02:17:25;;;;;;;;;;;15.60;99.90;;;;;;5053165;28;19916;-80
2022/09/14 02:20:00;;;;;;;;;;;15.60;99.90;;;;;;5049556;28;19923;-80
2022/09/14 02:22:27;;;;;;;;;;;15.50;99.90;;;;;;5047065;28;19917;-80
2022/09/14 02:24:53;;;;;;;;;;;15.50;99.90;;;;;;5044032;28;19956;-80
2022/09/14 02:27:18;;;;;;;;;;;15.50;99.90;;;;;;5035546;28;19940;-80
2022/09/14 02:29:44;;;;;;;;;;;15.50;99.90;;;;;;5052810;28;19912;-80
2022/09/14 02:32:27;;;;;;;;;;;15.50;99.90;;;;;;5053803;28;19915;-79
2022/09/14 02:35:11;;;;;;;;;;;15.50;99.90;;;;;;5052045;28;19939;-80
2022/09/14 02:37:52;;;;;;;;;;;15.50;99.90;;;;;;5052226;28;20273;-80
2022/09/14 02:40:38;;;;;;;;;;;15.50;99.90;;;;;;5051652;28;19917;-79
2022/09/14 02:43:03;;;;;;;;;;;15.50;99.90;;;;;;5053385;28;20423;-80
2022/09/14 02:45:34;;;;;;;;;;;15.50;99.90;;;;;;5052077;28;19921;-80
2022/09/14 02:48:18;;;;;;;;;;;15.50;99.90;;;;;;5051081;28;19942;-80
2022/09/14 02:50:55;;;;;;;;;;;15.40;99.90;;;;;;5047650;28;19924;-80
2022/09/14 02:53:35;;;;;;;;;;;15.40;99.90;;;;;;5051038;28;19913;-80
2022/09/14 02:56:04;;;;;;;;;;;15.40;99.90;;;;;;5042525;28;19917;-81
2022/09/14 02:58:38;;;;;;;;;;;15.40;99.90;;;;;;5053443;28;19913;-80
2022/09/14 03:01:04;;;;;;;;;;;15.40;99.90;;;;;;5054462;28;20576;-79
2022/09/14 03:03:30;;;;;;;;;;;15.40;99.90;;;;;;5050214;28;19920;-80
2022/09/14 03:05:56;;;;;;;;;;;15.40;99.90;;;;;;5053108;28;20304;-80
2022/09/14 03:08:22;;;;;;;;;;;15.40;99.90;;;;;;5065128;28;20308;-80
2022/09/14 03:10:48;;;;;;;;;;;15.40;99.90;;;;;;5067951;28;19913;-80
2022/09/14 03:13:13;;;;;;;;;;;15.40;99.90;;;;;;5052311;28;20023;-80
2022/09/14 03:15:39;;;;;;;;;;;15.40;99.90;;;;;;5027719;28;20400;-80
2022/09/14 03:18:05;;;;;;;;;;;15.40;99.90;;;;;;5053755;28;19917;-80
2022/09/14 03:20:32;;;;;;;;;;;15.30;99.90;;;;;;5046844;28;19935;-80
2022/09/14 03:22:58;;;;;;;;;;;15.30;99.90;;;;;;5050600;28;20348;-80
2022/09/14 03:25:24;;;;;;;;;;;15.30;99.90;;;;;;5039239;28;19921;-80
2022/09/14 03:27:51;;;;;;;;;;;15.30;99.90;;;;;;5045303;28;19920;-80
2022/09/14 03:30:17;;;;;;;;;;;15.30;99.90;;;;;;5040259;28;20429;-80
2022/09/14 03:32:43;;;;;;;;;;;15.30;99.90;;;;;;5052074;28;19921;-80
2022/09/14 03:35:09;;;;;;;;;;;15.30;99.90;;;;;;5051591;28;20416;-80
2022/09/14 03:37:38;;;;;;;;;;;15.20;99.90;;;;;;5052890;28;19924;-80
2022/09/14 03:40:04;;;;;;;;;;;15.20;99.90;;;;;;5043801;28;19924;-80
2022/09/14 03:42:30;;;;;;;;;;;15.30;99.90;;;;;;5053051;28;19935;-80
2022/09/14 03:44:55;;;;;;;;;;;15.30;99.90;;;;;;5037669;28;19913;-80
2022/09/14 03:47:21;;;;;;;;;;;15.30;99.90;;;;;;5050308;28;19999;-80
2022/09/14 03:49:47;;;;;;;;;;;15.30;99.90;;;;;;5051967;28;20385;-80
2022/09/14 03:52:12;;;;;;;;;;;15.30;99.90;;;;;;5052772;28;20297;-80
2022/09/14 03:54:38;;;;;;;;;;;15.30;99.90;;;;;;5051291;28;19917;-80
2022/09/14 03:57:03;;;;;;;;;;;15.20;99.90;;;;;;5052228;28;19929;-80
2022/09/14 03:59:29;;;;;;;;;;;15.20;99.90;;;;;;5042605;28;19917;-79
2022/09/14 04:01:55;;;;;;;;;;;15.20;99.90;;;;;;5047923;28;19925;-79
2022/09/14 04:04:20;;;;;;;;;;;15.20;99.90;;;;;;5051186;28;19996;-80
2022/09/14 04:06:46;;;;;;;;;;;15.20;99.90;;;;;;5053666;28;19928;-79
2022/09/14 04:09:12;;;;;;;;;;;15.20;99.90;;;;;;5057010;28;19917;-79
2022/09/14 04:11:37;;;;;;;;;;;15.20;99.90;;;;;;5051349;28;19962;-79
2022/09/14 04:14:04;;;;;;;;;;;15.10;99.90;;;;;;5052570;28;19923;-79
2022/09/14 04:16:29;;;;;;;;;;;15.10;99.90;;;;;;5051986;28;20000;-79
2022/09/14 04:18:55;;;;;;;;;;;15.10;99.90;;;;;;5047734;28;19956;-78
2022/09/14 04:21:23;;;;;;;;;;;15.00;99.90;;;;;;5051894;28;19967;-79
2022/09/14 04:23:53;;;;;;;;;;;15.00;99.90;;;;;;5052120;28;19924;-78
2022/09/14 04:26:19;;;;;;;;;;;15.00;99.90;;;;;;5051515;28;20510;-78
2022/09/14 04:28:45;;;;;;;;;;;15.00;99.90;;;;;;5052078;28;19909;-78
2022/09/14 04:31:11;;;;;;;;;;;15.00;99.90;;;;;;5051296;28;19919;-78
2022/09/14 04:33:37;;;;;;;;;;;15.00;99.90;;;;;;5049343;28;19920;-78
2022/09/14 04:36:07;;;;;;;;;;;15.00;99.90;;;;;;5051127;28;20446;-78
2022/09/14 04:38:33;;;;;;;;;;;15.00;99.90;;;;;;5050580;28;19970;-78
2022/09/14 04:40:59;;;;;;;;;;;15.00;99.90;;;;;;5050262;28;19947;-78
2022/09/14 04:43:25;;;;;;;;;;;15.00;99.90;;;;;;5049945;28;19916;-77
2022/09/14 04:45:51;;;;;;;;;;;15.10;99.90;;;;;;5041201;28;19916;-78
2022/09/14 04:48:17;;;;;;;;;;;15.10;99.90;;;;;;5050765;28;19908;-77
2022/09/14 04:50:43;;;;;;;;;;;15.10;99.90;;;;;;5052411;28;19991;-78
2022/09/14 04:53:09;;;;;;;;;;;15.10;99.90;;;;;;5053934;28;19960;-78
2022/09/14 04:55:35;;;;;;;;;;;15.10;99.90;;;;;;5045440;28;19963;-78
2022/09/14 04:58:00;;;;;;;;;;;15.10;99.90;;;;;;5053882;28;19917;-77
2022/09/14 05:00:26;;;;;;;;;;;15.10;99.90;;;;;;5052834;28;19917;-78
2022/09/14 05:02:52;;;;;;;;;;;15.10;99.90;;;;;;5053572;28;20282;-79
2022/09/14 05:05:17;;;;;;;;;;;15.10;99.90;;;;;;5053634;28;19917;-77
2022/09/14 05:07:43;;;;;;;;;;;15.10;99.90;;;;;;5047187;28;19921;-78
2022/09/14 05:10:08;;;;;;;;;;;15.10;99.90;;;;;;5046286;28;19923;-78
2022/09/14 05:12:34;;;;;;;;;;;15.20;99.90;;;;;;5040702;28;19913;-78
2022/09/14 05:15:00;;;;;;;;;;;15.10;99.90;;;;;;5037915;28;19917;-78
2022/09/14 05:17:25;;;;;;;;;;;15.10;99.90;;;;;;5054546;28;20510;-78
2022/09/14 05:19:51;;;;;;;;;;;15.10;99.90;;;;;;5025148;28;19971;-79
2022/09/14 05:22:16;;;;;;;;;;;15.10;99.90;;;;;;5028571;28;19925;-79
2022/09/14 05:24:42;;;;;;;;;;;15.10;99.90;;;;;;5044865;28;19957;-78
2022/09/14 05:27:11;;;;;;;;;;;15.10;99.90;;;;;;5046912;28;19921;-80
2022/09/14 05:29:39;;;;;;;;;;;15.10;99.90;;;;;;5044462;28;19940;-81
2022/09/14 05:32:05;;;;;;;;;;;15.10;99.90;;;;;;5049272;28;19917;-81
2022/09/14 05:34:30;;;;;;;;;;;15.10;99.90;;;;;;5056255;28;19935;-81
2022/09/14 05:36:56;;;;;;;;;;;15.10;99.90;;;;;;5058428;28;19912;-80
2022/09/14 05:39:23;;;;;;;;;;;15.10;99.90;;;;;;5034137;28;20180;-81
2022/09/14 05:41:49;;;;;;;;;;;15.10;99.90;;;;;;5048590;28;19921;-80
2022/09/14 05:44:15;;;;;;;;;;;15.10;99.90;;;;;;5039466;28;19936;-80
2022/09/14 05:46:40;;;;;;;;;;;15.10;99.90;;;;;;5058413;28;19925;-80
2022/09/14 05:49:06;;;;;;;;;;;15.10;99.90;;;;;;5051646;28;19921;-80
2022/09/14 05:51:31;;;;;;;;;;;15.10;99.90;;;;;;5054090;28;20427;-80
2022/09/14 05:53:57;;;;;;;;;;;15.10;99.90;;;;;;5060780;28;19956;-80
2022/09/14 05:56:24;;;;;;;;;;;15.10;99.90;;;;;;5064878;28;20324;-81
2022/09/14 05:58:51;;;;;;;;;;;15.10;99.90;;;;;;5066778;28;19919;-80
2022/09/14 06:01:21;;;;;;;;;;;15.10;99.90;;;;;;5056970;28;19917;-81
2022/09/14 06:03:47;;;;;;;;;;;15.10;99.90;;;;;;5060742;28;19912;-79
2022/09/14 06:06:14;;;;;;;;;;;15.20;99.90;;;;;;5063384;28;20292;-79
2022/09/14 06:08:40;;;;;;;;;;;15.20;99.90;;;;;;5056685;28;19916;-79
2022/09/14 06:11:07;;;;;;;;;;;15.20;99.90;;;;;;5059125;28;19917;-79
2022/09/14 06:13:33;;;;;;;;;;;15.30;99.90;;;;;;5043376;28;19916;-79
2022/09/14 06:16:05;;;;;;;;;;;15.40;99.90;;;;;;5073209;28;19931;-81
2022/09/14 06:18:32;;;;;;;;;;;15.40;99.90;;;;;;5063187;28;19966;-81
2022/09/14 06:20:58;;;;;;;;;;;15.40;99.90;;;;;;5060791;28;19917;-81
2022/09/14 06:23:24;;;;;;;;;;;15.40;99.90;;;;;;5054393;28;20608;-81
2022/09/14 06:25:51;;;;;;;;;;;15.40;99.90;;;;;;5054874;28;19940;-81
2022/09/14 06:28:17;;;;;;;;;;;15.40;99.90;;;;;;5055813;28;19917;-81
2022/09/14 06:30:43;;;;;;;;;;;15.40;99.90;;;;;;5060507;28;20163;-80
2022/09/14 06:33:08;;;;;;;;;;;15.40;99.90;;;;;;5057659;28;19963;-80
2022/09/14 06:35:34;;;;;;;;;;;15.40;99.90;;;;;;5059903;28;19917;-81
2022/09/14 06:37:59;;;;;;;;;;;15.40;99.90;;;;;;5059053;28;19990;-80
2022/09/14 06:40:25;;;;;;;;;;;15.40;99.90;;;;;;5061512;28;20244;-80
2022/09/14 06:42:51;;;;;;;;;;;15.50;99.90;;;;;;5061493;28;19968;-81
2022/09/14 06:45:17;;;;;;;;;;;15.50;99.90;;;;;;5058872;28;19959;-80
2022/09/14 06:47:42;;;;;;;;;;;15.50;99.90;;;;;;5058838;28;19992;-80
2022/09/14 06:50:08;;;;;;;;;;;15.50;99.90;;;;;;5055828;28;19916;-80
2022/09/14 06:52:37;;;;;;;;;;;15.50;99.90;;;;;;5064314;28;19924;-79
2022/09/14 06:55:02;;;;;;;;;;;15.50;99.90;;;;;;5065264;28;19926;-78
2022/09/14 06:57:28;;;;;;;;;;;15.60;99.90;;;;;;5054348;28;20384;-80
2022/09/14 06:59:53;;;;;;;;;;;15.60;99.90;;;;;;5062457;28;20374;-79
2022/09/14 07:02:19;;;;;;;;;;;15.70;99.90;;;;;;5055990;28;19917;-80
2022/09/14 07:05:02;;;;;;;;;;;15.70;99.90;;;;;;5088434;28;19922;-80
2022/09/14 07:07:28;;;;;;;;;;;15.80;99.90;;;;;;5104502;28;19928;-81
2022/09/14 07:09:53;;;;;;;;;;;15.80;99.90;;;;;;5086053;28;20292;-80
2022/09/14 07:12:19;;;;;;;;;;;15.80;99.90;;;;;;5080470;28;19927;-81
2022/09/14 07:14:44;;;;;;;;;;;15.90;99.90;;;;;;5085084;28;20023;-81
2022/09/14 07:17:10;;;;;;;;;;;15.90;99.90;;;;;;5087633;28;19920;-81
2022/09/14 07:19:36;;;;;;;;;;;16.00;99.90;;;;;;5089905;28;19983;-80
2022/09/14 07:22:01;;;;;;;;;;;16.00;99.90;;;;;;5089557;28;19916;-81
2022/09/14 07:24:27;;;;;;;;;;;16.10;99.90;;;;;;5086213;28;19990;-81
2022/09/14 07:26:52;;;;;;;;;;;16.10;99.90;;;;;;5070821;28;19920;-80
2022/09/14 07:29:18;;;;;;;;;;;16.10;99.90;;;;;;5055254;28;20343;-80
2022/09/14 07:31:45;;;;;;;;;;;16.10;99.90;;;;;;5074244;28;19947;-81
2022/09/14 07:34:11;;;;;;;;;;;16.10;99.90;;;;;;5084521;28;19924;-82
2022/09/14 07:36:37;;;;;;;;;;;16.20;99.90;;;;;;5077732;28;19913;-80
2022/09/14 07:39:04;;;;;;;;;;;16.20;99.90;;;;;;5084308;28;20288;-81
2022/09/14 07:41:31;;;;;;;;;;;16.20;99.90;;;;;;5079010;28;19916;-81
2022/09/14 07:43:59;;;;;;;;;;;16.20;99.90;;;;;;5084210;28;20539;-81
2022/09/14 07:46:25;;;;;;;;;;;16.20;99.90;;;;;;5079121;28;20004;-80
2022/09/14 07:48:55;;;;;;;;;;;16.20;99.90;;;;;;5077607;28;19970;-80
2022/09/14 07:51:21;;;;;;;;;;;16.10;99.90;;;;;;5075365;28;19962;-80
2022/09/14 07:53:47;;;;;;;;;;;16.10;99.90;;;;;;5071601;28;19962;-80
2022/09/14 07:56:15;;;;;;;;;;;16.10;99.90;;;;;;5075483;28;19924;-80
2022/09/14 07:58:41;;;;;;;;;;;16.10;99.90;;;;;;5073463;28;20019;-80
2022/09/14 08:01:11;;;;;;;;;;;16.10;99.90;;;;;;5074750;28;19959;-80
2022/09/14 08:03:38;;;;;;;;;;;16.10;99.90;;;;;;5081005;28;19920;-80
2022/09/14 08:06:05;;;;;;;;;;;16.00;99.90;;;;;;5076741;28;19916;-80
2022/09/14 08:08:32;;;;;;;;;;;16.00;99.90;;;;;;5084901;28;20011;-80
2022/09/14 08:11:04;;;;;;;;;;;16.00;99.90;;;;;;5071880;28;19912;-80
2022/09/14 08:13:30;;;;;;;;;;;16.10;99.90;;;;;;5073314;28;20257;-80
2022/09/14 08:15:59;;;;;;;;;;;16.10;99.90;;;;;;5061963;28;19974;-80
2022/09/14 08:18:25;;;;;;;;;;;16.00;99.90;;;;;;5058050;28;20470;-80
2022/09/14 08:20:51;;;;;;;;;;;16.00;99.90;;;;;;5056998;28;19917;-80
2022/09/14 08:23:17;;;;;;;;;;;16.10;99.90;;;;;;5052998;28;19952;-81
2022/09/14 08:25:42;;;;;;;;;;;16.10;99.90;;;;;;5056176;28;19923;-80
2022/09/14 08:28:08;;;;;;;;;;;16.10;99.90;;;;;;5049497;28;19923;-80
2022/09/14 08:30:33;;;;;;;;;;;16.00;99.90;;;;;;5053946;28;20316;-79
2022/09/14 08:32:59;;;;;;;;;;;16.10;99.90;;;;;;5053174;28;20043;-80
2022/09/14 08:35:24;;;;;;;;;;;16.00;99.90;;;;;;5057726;28;20269;-79
2022/09/14 08:37:50;;;;;;;;;;;16.10;99.90;;;;;;5063073;28;19924;-79
2022/09/14 08:40:16;;;;;;;;;;;16.00;99.90;;;;;;5046452;28;19921;-79
2022/09/14 08:42:43;;;;;;;;;;;16.00;99.90;;;;;;5059050;28;20277;-80
2022/09/14 08:45:10;;;;;;;;;;;16.10;99.90;;;;;;5054603;28;20332;-80
2022/09/14 08:47:37;;;;;;;;;;;16.10;99.90;;;;;;5062342;28;19913;-79
2022/09/14 08:50:09;;;;;;;;;;;16.10;99.90;;;;;;5053802;28;19940;-80
2022/09/14 08:52:42;;;;;;;;;;;16.10;99.90;;;;;;5063433;28;19920;-80
2022/09/14 08:55:23;;;;;;;;;;;16.10;99.90;;;;;;5052167;28;19970;-80
2022/09/14 08:57:59;;;;;;;;;;;16.10;99.90;;;;;;5062275;28;20042;-79
2022/09/14 09:00:31;;;;;;;;;;;16.20;99.90;;;;;;5070873;28;19916;-80
2022/09/14 09:03:21;;;;;;;;;;;16.20;99.90;;;;;;5058565;28;20337;-79
2022/09/14 09:06:01;;;;;;;;;;;16.20;99.90;;;;;;5059939;28;20333;-79
2022/09/14 09:08:30;;;;;;;;;;;16.20;99.90;;;;;;5058793;28;19913;-80
2022/09/14 09:10:57;;;;;;;;;;;16.30;99.90;;;;;;5057202;28;20005;-79
2022/09/14 09:13:25;;;;;;;;;;;16.30;99.90;;;;;;5057665;28;19909;-79
2022/09/14 09:15:51;;;;;;;;;;;16.30;99.90;;;;;;5056603;28;20455;-80
2022/09/14 09:18:26;;;;;;;;;;;16.40;99.90;;;;;;5054371;28;19913;-80
2022/09/14 09:20:58;;;;;;;;;;;16.40;99.90;;;;;;5060961;28;19920;-80
2022/09/14 09:23:26;;;;;;;;;;;16.50;99.90;;;;;;5058723;28;19940;-79
2022/09/14 09:25:55;;;;;;;;;;;16.50;99.90;;;;;;5063730;28;19920;-80
2022/09/14 09:28:24;;;;;;;;;;;16.60;99.90;;;;;;5059585;28;19916;-79
2022/09/14 09:30:52;;;;;;;;;;;16.60;99.90;;;;;;5060930;28;20387;-81
2022/09/14 09:33:24;;;;;;;;;;;16.60;99.90;;;;;;5053311;28;20393;-80
2022/09/14 09:36:05;;;;;;;;;;;16.60;99.90;;;;;;5061457;28;19916;-81
2022/09/14 09:38:31;;;;;;;;;;;16.70;99.90;;;;;;5052647;28;19916;-80
2022/09/14 09:41:00;;;;;;;;;;;16.70;99.90;;;;;;5061165;28;19931;-81
2022/09/14 09:43:29;;;;;;;;;;;16.70;99.90;;;;;;5032844;28;19967;-81
2022/09/14 09:46:02;;;;;;;;;;;16.70;99.90;;;;;;5055500;28;19917;-81
2022/09/14 09:48:37;;;;;;;;;;;16.70;99.90;;;;;;5066631;28;20004;-81
2022/09/14 09:51:11;;;;;;;;;;;16.80;99.90;;;;;;5048315;28;19916;-81
2022/09/14 09:53:38;;;;;;;;;;;16.80;99.90;;;;;;5057049;28;20562;-80
2022/09/14 09:56:03;;;;;;;;;;;16.90;99.90;;;;;;5058282;28;19912;-81
2022/09/14 09:58:32;;;;;;;;;;;16.90;99.90;;;;;;5057871;28;19924;-81
2022/09/14 10:01:03;;;;;;;;;;;16.90;99.90;;;;;;5064470;28;19969;-80
2022/09/14 10:03:38;;;;;;;;;;;16.90;99.90;;;;;;5057730;28;20499;-81
2022/09/14 10:06:09;;;;;;;;;;;16.90;99.90;;;;;;5061686;28;19919;-80
2022/09/14 10:08:45;;;;;;;;;;;16.90;99.90;;;;;;5056544;28;19960;-82
2022/09/14 10:11:26;;;;;;;;;;;16.90;99.90;;;;;;5058931;28;19921;-80
2022/09/14 10:13:52;;;;;;;;;;;16.90;99.90;;;;;;5053790;28;19942;-80
2022/09/14 10:16:18;;;;;;;;;;;16.90;99.90;;;;;;5056609;28;19924;-80
2022/09/14 10:18:45;;;;;;;;;;;16.90;99.90;;;;;;5045351;28;19924;-80
2022/09/14 10:21:11;;;;;;;;;;;17.00;99.90;;;;;;5050771;28;19995;-81
2022/09/14 10:23:38;;;;;;;;;;;17.00;99.90;;;;;;5054717;28;19923;-80
2022/09/14 10:26:12;;;;;;;;;;;17.10;99.90;;;;;;5044291;28;20007;-80
2022/09/14 10:28:38;;;;;;;;;;;17.10;99.90;;;;;;5041967;28;19923;-81
2022/09/14 10:31:10;;;;;;;;;;;17.10;99.90;;;;;;5049950;28;19916;-80
2022/09/14 10:33:35;;;;;;;;;;;17.10;99.90;;;;;;5053816;28;20646;-79
2022/09/14 10:36:01;;;;;;;;;;;17.20;99.90;;;;;;5059201;28;19923;-80
2022/09/14 10:38:44;;;;;;;;;;;17.20;99.90;;;;;;5048216;28;20446;-80
2022/09/14 10:41:30;;;;;;;;;;;17.20;99.90;;;;;;5056039;28;19923;-80
2022/09/14 10:44:11;;;;;;;;;;;17.20;99.90;;;;;;5056775;28;19969;-80
2022/09/14 10:46:42;;;;;;;;;;;17.20;99.90;;;;;;5058781;28;19913;-80
2022/09/14 10:49:16;;;;;;;;;;;17.30;99.90;;;;;;5055719;28;19920;-80
2022/09/14 10:51:54;;;;;;;;;;;17.30;99.90;;;;;;5062752;28;19985;-80
2022/09/14 10:54:30;;;;;;;;;;;17.30;99.90;;;;;;5057837;28;19913;-80
2022/09/14 10:56:59;;;;;;;;;;;17.30;99.90;;;;;;5062546;28;19921;-81
2022/09/14 10:59:34;;;;;;;;;;;17.30;99.90;;;;;;5059020;28;19920;-80
2022/09/14 11:02:25;;;;;;;;;;;17.30;99.90;;;;;;5059703;28;19952;-81
2022/09/14 11:04:51;;;;;;;;;;;17.30;99.90;;;;;;5054098;28;19916;-80
2022/09/14 11:07:23;;;;;;;;;;;17.30;99.90;;;;;;5058973;28;19921;-80
2022/09/14 11:09:56;;;;;;;;;;;17.40;99.90;;;;;;5061661;28;20384;-80
2022/09/14 11:12:40;;;;;;;;;;;17.40;99.90;;;;;;5056952;28;20528;-81
2022/09/14 11:15:05;;;;;;;;;;;17.40;99.90;;;;;;5060652;28;19912;-80
2022/09/14 11:17:34;;;;;;;;;;;17.50;99.90;;;;;;5058070;28;19913;-80
2022/09/14 11:20:16;;;;;;;;;;;17.50;99.90;;;;;;5055874;28;19913;-80
2022/09/14 11:22:51;;;;;;;;;;;17.50;99.90;;;;;;5053698;28;19921;-80
2022/09/14 11:25:20;;;;;;;;;;;17.50;99.90;;;;;;5064030;28;19919;-81
2022/09/14 11:27:49;;;;;;;;;;;17.50;99.90;;;;;;5064189;28;19913;-80
2022/09/14 11:30:17;;;;;;;;;;;17.60;99.90;;;;;;5048621;28;19920;-81
2022/09/14 11:32:54;;;;;;;;;;;17.60;99.90;;;;;;5061832;28;19912;-81
2022/09/14 11:35:22;;;;;;;;;;;17.70;99.90;;;;;;5061400;28;19938;-81
2022/09/14 11:37:51;;;;;;;;;;;17.80;99.90;;;;;;5055718;28;19920;-81
2022/09/14 11:40:27;;;;;;;;;;;17.80;99.90;;;;;;5067821;28;19920;-81
2022/09/14 11:43:02;;;;;;;;;;;17.90;99.90;;;;;;5068042;28;19917;-81
2022/09/14 11:45:30;;;;;;;;;;;18.00;99.90;;;;;;5067633;28;20015;-81
2022/09/14 11:48:18;;;;;;;;;;;18.10;99.90;;;;;;5046131;28;20384;-81
2022/09/14 11:50:45;;;;;;;;;;;18.10;99.90;;;;;;5065724;28;19955;-81
2022/09/14 11:53:12;;;;;;;;;;;18.10;99.90;;;;;;5060681;28;19927;-82
2022/09/14 11:55:43;;;;;;;;;;;18.10;99.90;;;;;;5055102;28;19920;-81
2022/09/14 11:58:15;;;;;;;;;;;18.10;99.90;;;;;;5079048;28;19928;-81
2022/09/14 12:00:57;;;;;;;;;;;18.20;99.90;;;;;;5081268;28;20486;-82
2022/09/14 12:03:42;;;;;;;;;;;18.20;99.90;;;;;;5070269;28;19928;-81
2022/09/14 12:06:37;;;;;;;;;;;18.20;99.90;;;;;;5071089;28;19917;-81
2022/09/14 12:09:12;;;;;;;;;;;18.10;99.90;;;;;;5075061;28;19923;-81
2022/09/14 12:11:37;;;;;;;;;;;18.00;99.90;;;;;;5074687;28;19938;-82
2022/09/14 12:14:22;;;;;;;;;;;18.00;99.90;;;;;;5076781;28;20440;-81
2022/09/14 12:17:06;;;;;;;;;;;18.00;99.90;;;;;;5070090;28;19919;-82
2022/09/14 12:19:33;;;;;;;;;;;18.00;99.90;;;;;;5071028;28;19927;-82
2022/09/14 12:22:19;;;;;;;;;;;18.00;99.90;;;;;;5055542;28;19913;-82
2022/09/14 12:24:56;;;;;;;;;;;17.90;99.90;;;;;;5062152;28;19941;-82
2022/09/14 12:27:21;;;;;;;;;;;17.80;99.90;;;;;;5064861;28;19919;-82
2022/09/14 12:29:47;;;;;;;;;;;17.80;99.90;;;;;;5062048;28;19913;-82
2022/09/14 12:32:26;;;;;;;;;;;17.90;99.90;;;;;;5055906;28;19932;-82
2022/09/14 12:35:11;;;;;;;;;;;17.80;99.90;;;;;;5062206;28;19932;-82
2022/09/14 12:37:37;;;;;;;;;;;17.90;99.90;;;;;;5074681;28;20258;-82
2022/09/14 12:40:22;;;;;;;;;;;17.90;99.90;;;;;;5053693;28;19924;-81
2022/09/14 12:42:47;;;;;;;;;;;17.90;99.90;;;;;;5064712;28;19913;-82
2022/09/14 12:45:31;;;;;;;;;;;18.00;99.90;;;;;;5066824;28;20065;-82
2022/09/14 12:47:57;;;;;;;;;;;18.10;99.90;;;;;;5059772;28;19928;-83
2022/09/14 12:50:25;;;;;;;;;;;18.20;99.90;;;;;;5046906;28;19921;-82
2022/09/14 12:52:56;;;;;;;;;;;18.10;99.90;;;;;;5051533;28;19956;-83
2022/09/14 12:55:45;;;;;;;;;;;18.20;99.90;;;;;;5063117;28;20495;-82
2022/09/14 12:58:19;;;;;;;;;;;18.20;99.90;;;;;;5067905;28;19920;-83
2022/09/14 13:00:53;;;;;;;;;;;18.20;99.90;;;;;;5071424;28;19916;-83
2022/09/14 13:03:22;;;;;;;;;;;18.20;99.90;;;;;;5054441;28;20239;-83
2022/09/14 13:05:48;;;;;;;;;;;18.20;99.90;;;;;;5064837;28;19924;-83
2022/09/14 13:08:17;;;;;;;;;;;18.20;99.90;;;;;;5052609;28;19917;-83
2022/09/14 13:10:44;;;;;;;;;;;18.20;99.90;;;;;;5070147;28;20807;-82
2022/09/14 13:13:15;;;;;;;;;;;18.10;99.90;;;;;;5065502;28;19959;-82
2022/09/14 13:15:52;;;;;;;;;;;18.10;99.90;;;;;;5062029;28;19916;-83
2022/09/14 13:18:17;;;;;;;;;;;18.10;99.90;;;;;;5069523;28;19919;-83
2022/09/14 13:20:53;;;;;;;;;;;18.00;99.90;;;;;;5066551;28;19909;-83
2022/09/14 13:23:20;;;;;;;;;;;18.00;99.90;;;;;;5058703;28;20316;-83
2022/09/14 13:25:46;;;;;;;;;;;18.10;99.90;;;;;;5061169;28;19912;-83
2022/09/14 13:28:13;;;;;;;;;;;18.10;99.90;;;;;;5063433;28;20007;-82
2022/09/14 13:30:42;;;;;;;;;;;18.10;99.90;;;;;;5058273;28;19921;-82
2022/09/14 13:33:17;;;;;;;;;;;18.10;99.90;;;;;;5060477;28;19916;-82
2022/09/14 13:35:53;;;;;;;;;;;18.10;99.90;;;;;;5052604;28;20007;-82
2022/09/14 13:38:23;;;;;;;;;;;18.00;99.90;;;;;;5059839;28;19913;-82
2022/09/14 13:40:50;;;;;;;;;;;18.00;99.90;;;;;;5057740;28;19924;-83
2022/09/14 13:43:17;;;;;;;;;;;18.00;99.90;;;;;;5068832;28;19967;-82
2022/09/14 13:45:43;;;;;;;;;;;17.90;99.90;;;;;;5066930;28;19951;-82
2022/09/14 13:48:10;;;;;;;;;;;17.90;99.90;;;;;;5028499;28;19921;-83
2022/09/14 13:50:36;;;;;;;;;;;17.90;99.90;;;;;;5060716;28;19913;-82
2022/09/14 13:53:02;;;;;;;;;;;17.90;99.90;;;;;;5053749;28;20005;-82
2022/09/14 13:55:30;;;;;;;;;;;17.90;99.90;;;;;;5038485;28;20608;-83
2022/09/14 13:58:26;;;;;;;;;;;17.90;99.90;;;;;;5057344;28;21191;-82
2022/09/14 14:01:03;;;;;;;;;;;17.90;99.90;;;;;;5055950;28;20015;-82
2022/09/14 14:03:49;;;;;;;;;;;17.90;99.90;;;;;;5051194;28;20451;-82
2022/09/14 14:06:19;;;;;;;;;;;17.80;99.90;;;;;;5054094;28;19912;-82
2022/09/14 14:08:50;;;;;;;;;;;17.80;99.90;;;;;;5052593;28;19939;-81
2022/09/14 14:11:24;;;;;;;;;;;17.80;99.90;;;;;;5062054;28;20416;-81
2022/09/14 14:13:50;;;;;;;;;;;17.80;99.90;;;;;;5056827;28;19972;-82
2022/09/14 14:16:17;;;;;;;;;;;17.90;99.90;;;;;;5059497;28;19951;-81
2022/09/14 14:18:54;;;;;;;;;;;17.90;99.90;;;;;;5064737;28;19927;-81
2022/09/14 14:21:29;;;;;;;;;;;17.90;99.90;;;;;;5064362;28;19955;-82
2022/09/14 14:24:13;;;;;;;;;;;17.90;99.90;;;;;;5047377;28;19956;-81
2022/09/14 14:26:46;;;;;;;;;;;17.90;99.90;;;;;;5054517;28;19959;-82
2022/09/14 14:29:13;;;;;;;;;;;17.90;99.90;;;;;;5054296;28;19919;-82